sensor_id;sensor_type;location;lat;lon;timestamp;P1;durP1;ratioP1;P2;durP2;ratioP2
61572;SDS011;47465;43.094;12.434;2023-02-22T00:02:13;37.35;;;22.08;;
61572;SDS011;47465;43.094;12.434;2023-02-22T00:04:51;34.97;;;21.80;;
61572;SDS011;47465;43.094;12.434;2023-02-22T00:07:17;37.05;;;22.10;;
61572;SDS011;47465;43.094;12.434;2023-02-22T00:09:45;35.35;;;21.98;;
61572;SDS011;47465;43.094;12.434;2023-02-22T00:12:11;35.08;;;21.38;;
61572;SDS011;47465;43.094;12.434;2023-02-22T00:14:37;40.28;;;22.48;;
61572;SDS011;47465;43.094;12.434;2023-02-22T00:17:04;45.70;;;23.52;;
61572;SDS011;47465;43.094;12.434;2023-02-22T00:19:31;40.20;;;24.33;;
61572;SDS011;47465;43.094;12.434;2023-02-22T00:21:58;40.53;;;23.80;;
61572;SDS011;47465;43.094;12.434;2023-02-22T00:24:24;38.42;;;24.00;;
61572;SDS011;47465;43.094;12.434;2023-02-22T00:26:50;38.67;;;24.70;;
61572;SDS011;47465;43.094;12.434;2023-02-22T00:29:19;38.17;;;22.65;;
61572;SDS011;47465;43.094;12.434;2023-02-22T00:31:45;38.30;;;23.60;;
61572;SDS011;47465;43.094;12.434;2023-02-22T00:34:12;38.45;;;23.33;;
61572;SDS011;47465;43.094;12.434;2023-02-22T00:36:39;38.25;;;22.73;;
61572;SDS011;47465;43.094;12.434;2023-02-22T00:39:09;36.35;;;22.75;;
61572;SDS011;47465;43.094;12.434;2023-02-22T00:41:35;38.33;;;22.48;;
61572;SDS011;47465;43.094;12.434;2023-02-22T00:44:01;36.15;;;21.02;;
61572;SDS011;47465;43.094;12.434;2023-02-22T00:46:27;32.50;;;21.35;;
61572;SDS011;47465;43.094;12.434;2023-02-22T00:48:52;34.20;;;20.15;;
61572;SDS011;47465;43.094;12.434;2023-02-22T00:51:19;36.70;;;21.15;;
61572;SDS011;47465;43.094;12.434;2023-02-22T00:53:46;32.60;;;19.17;;
61572;SDS011;47465;43.094;12.434;2023-02-22T00:56:12;31.05;;;19.52;;
61572;SDS011;47465;43.094;12.434;2023-02-22T00:58:37;32.10;;;18.45;;
61572;SDS011;47465;43.094;12.434;2023-02-22T01:01:03;34.22;;;20.65;;
61572;SDS011;47465;43.094;12.434;2023-02-22T01:03:29;37.33;;;21.63;;
61572;SDS011;47465;43.094;12.434;2023-02-22T01:05:56;35.08;;;20.58;;
61572;SDS011;47465;43.094;12.434;2023-02-22T01:08:22;32.75;;;19.98;;
61572;SDS011;47465;43.094;12.434;2023-02-22T01:10:50;32.67;;;20.55;;
61572;SDS011;47465;43.094;12.434;2023-02-22T01:13:16;35.97;;;20.83;;
61572;SDS011;47465;43.094;12.434;2023-02-22T01:15:44;34.50;;;21.27;;
61572;SDS011;47465;43.094;12.434;2023-02-22T01:18:11;33.85;;;19.85;;
61572;SDS011;47465;43.094;12.434;2023-02-22T01:20:37;32.80;;;21.77;;
61572;SDS011;47465;43.094;12.434;2023-02-22T01:23:04;41.05;;;24.05;;
61572;SDS011;47465;43.094;12.434;2023-02-22T01:25:32;42.60;;;25.37;;
61572;SDS011;47465;43.094;12.434;2023-02-22T01:28:01;41.42;;;25.10;;
61572;SDS011;47465;43.094;12.434;2023-02-22T01:30:29;45.20;;;26.83;;
61572;SDS011;47465;43.094;12.434;2023-02-22T01:32:57;41.20;;;25.80;;
61572;SDS011;47465;43.094;12.434;2023-02-22T01:35:24;42.42;;;25.92;;
61572;SDS011;47465;43.094;12.434;2023-02-22T01:37:52;46.78;;;28.10;;
61572;SDS011;47465;43.094;12.434;2023-02-22T01:40:18;44.08;;;27.83;;
61572;SDS011;47465;43.094;12.434;2023-02-22T01:42:47;47.70;;;27.77;;
61572;SDS011;47465;43.094;12.434;2023-02-22T01:48:08;48.40;;;28.60;;
61572;SDS011;47465;43.094;12.434;2023-02-22T01:50:38;48.50;;;28.85;;
61572;SDS011;47465;43.094;12.434;2023-02-22T01:53:09;44.55;;;27.55;;
61572;SDS011;47465;43.094;12.434;2023-02-22T01:55:39;47.05;;;28.83;;
61572;SDS011;47465;43.094;12.434;2023-02-22T01:58:06;50.63;;;29.48;;
61572;SDS011;47465;43.094;12.434;2023-02-22T02:00:33;50.35;;;28.77;;
61572;SDS011;47465;43.094;12.434;2023-02-22T02:03:00;46.60;;;28.90;;
61572;SDS011;47465;43.094;12.434;2023-02-22T02:05:29;49.85;;;28.95;;
61572;SDS011;47465;43.094;12.434;2023-02-22T02:07:58;45.38;;;29.08;;
61572;SDS011;47465;43.094;12.434;2023-02-22T02:10:29;47.42;;;28.55;;
61572;SDS011;47465;43.094;12.434;2023-02-22T02:12:56;43.72;;;28.38;;
61572;SDS011;47465;43.094;12.434;2023-02-22T02:15:24;52.63;;;30.75;;
61572;SDS011;47465;43.094;12.434;2023-02-22T02:17:53;47.80;;;28.42;;
61572;SDS011;47465;43.094;12.434;2023-02-22T02:20:24;49.38;;;28.77;;
61572;SDS011;47465;43.094;12.434;2023-02-22T02:22:57;47.40;;;29.30;;
61572;SDS011;47465;43.094;12.434;2023-02-22T02:28:36;44.55;;;28.45;;
61572;SDS011;47465;43.094;12.434;2023-02-22T02:34:33;46.45;;;27.48;;
61572;SDS011;47465;43.094;12.434;2023-02-22T02:37:06;46.30;;;29.02;;
61572;SDS011;47465;43.094;12.434;2023-02-22T02:39:40;44.97;;;28.08;;
61572;SDS011;47465;43.094;12.434;2023-02-22T02:42:13;52.80;;;29.50;;
61572;SDS011;47465;43.094;12.434;2023-02-22T02:44:45;46.15;;;28.88;;
61572;SDS011;47465;43.094;12.434;2023-02-22T02:47:16;51.15;;;29.75;;
61572;SDS011;47465;43.094;12.434;2023-02-22T02:49:47;49.55;;;28.30;;
61572;SDS011;47465;43.094;12.434;2023-02-22T02:52:19;48.70;;;28.48;;
61572;SDS011;47465;43.094;12.434;2023-02-22T02:54:47;43.80;;;28.23;;
61572;SDS011;47465;43.094;12.434;2023-02-22T02:57:14;46.95;;;27.70;;
61572;SDS011;47465;43.094;12.434;2023-02-22T02:59:41;47.28;;;29.73;;
61572;SDS011;47465;43.094;12.434;2023-02-22T03:02:10;45.42;;;28.17;;
61572;SDS011;47465;43.094;12.434;2023-02-22T03:05:00;49.35;;;28.27;;
61572;SDS011;47465;43.094;12.434;2023-02-22T03:07:48;47.67;;;28.67;;
61572;SDS011;47465;43.094;12.434;2023-02-22T03:10:29;47.42;;;28.50;;
61572;SDS011;47465;43.094;12.434;2023-02-22T03:13:08;49.35;;;27.77;;
61572;SDS011;47465;43.094;12.434;2023-02-22T03:15:42;46.95;;;29.83;;
61572;SDS011;47465;43.094;12.434;2023-02-22T03:18:19;47.03;;;29.05;;
61572;SDS011;47465;43.094;12.434;2023-02-22T03:20:55;52.22;;;30.02;;
61572;SDS011;47465;43.094;12.434;2023-02-22T03:23:26;46.95;;;29.67;;
61572;SDS011;47465;43.094;12.434;2023-02-22T03:25:57;49.97;;;29.27;;
61572;SDS011;47465;43.094;12.434;2023-02-22T03:28:27;55.70;;;30.38;;
61572;SDS011;47465;43.094;12.434;2023-02-22T03:30:55;47.30;;;28.88;;
61572;SDS011;47465;43.094;12.434;2023-02-22T03:33:29;48.63;;;29.35;;
61572;SDS011;47465;43.094;12.434;2023-02-22T03:36:02;48.80;;;29.75;;
61572;SDS011;47465;43.094;12.434;2023-02-22T03:38:33;47.20;;;29.88;;
61572;SDS011;47465;43.094;12.434;2023-02-22T03:41:02;50.22;;;30.08;;
61572;SDS011;47465;43.094;12.434;2023-02-22T03:43:31;49.47;;;31.03;;
61572;SDS011;47465;43.094;12.434;2023-02-22T03:46:02;50.88;;;30.85;;
61572;SDS011;47465;43.094;12.434;2023-02-22T03:48:35;49.53;;;30.23;;
61572;SDS011;47465;43.094;12.434;2023-02-22T03:51:08;53.00;;;31.33;;
61572;SDS011;47465;43.094;12.434;2023-02-22T03:53:35;48.65;;;30.98;;
61572;SDS011;47465;43.094;12.434;2023-02-22T03:56:01;48.22;;;30.55;;
61572;SDS011;47465;43.094;12.434;2023-02-22T03:58:31;51.75;;;31.13;;
61572;SDS011;47465;43.094;12.434;2023-02-22T04:03:26;47.75;;;28.65;;
61572;SDS011;47465;43.094;12.434;2023-02-22T04:05:53;47.25;;;30.10;;
61572;SDS011;47465;43.094;12.434;2023-02-22T04:08:19;45.53;;;28.35;;
61572;SDS011;47465;43.094;12.434;2023-02-22T04:10:45;44.45;;;26.70;;
61572;SDS011;47465;43.094;12.434;2023-02-22T04:13:11;38.90;;;24.25;;
61572;SDS011;47465;43.094;12.434;2023-02-22T04:15:38;38.03;;;23.77;;
61572;SDS011;47465;43.094;12.434;2023-02-22T04:18:04;38.78;;;23.80;;
61572;SDS011;47465;43.094;12.434;2023-02-22T04:20:30;37.05;;;23.08;;
61572;SDS011;47465;43.094;12.434;2023-02-22T04:22:58;41.20;;;24.05;;
61572;SDS011;47465;43.094;12.434;2023-02-22T04:25:24;39.13;;;24.30;;
61572;SDS011;47465;43.094;12.434;2023-02-22T04:27:49;36.10;;;23.30;;
61572;SDS011;47465;43.094;12.434;2023-02-22T04:30:15;37.53;;;22.67;;
61572;SDS011;47465;43.094;12.434;2023-02-22T04:32:42;37.28;;;22.45;;
61572;SDS011;47465;43.094;12.434;2023-02-22T04:35:08;35.50;;;23.45;;
61572;SDS011;47465;43.094;12.434;2023-02-22T04:37:34;35.28;;;22.55;;
61572;SDS011;47465;43.094;12.434;2023-02-22T04:40:03;41.17;;;25.75;;
61572;SDS011;47465;43.094;12.434;2023-02-22T04:42:32;47.00;;;26.65;;
61572;SDS011;47465;43.094;12.434;2023-02-22T04:44:58;44.63;;;25.98;;
61572;SDS011;47465;43.094;12.434;2023-02-22T04:47:23;45.03;;;26.52;;
61572;SDS011;47465;43.094;12.434;2023-02-22T04:49:49;41.15;;;25.27;;
61572;SDS011;47465;43.094;12.434;2023-02-22T04:52:15;41.00;;;24.88;;
61572;SDS011;47465;43.094;12.434;2023-02-22T04:54:41;42.78;;;26.83;;
61572;SDS011;47465;43.094;12.434;2023-02-22T04:57:08;42.33;;;25.67;;
61572;SDS011;47465;43.094;12.434;2023-02-22T04:59:34;42.25;;;26.52;;
61572;SDS011;47465;43.094;12.434;2023-02-22T05:02:00;44.63;;;26.60;;
61572;SDS011;47465;43.094;12.434;2023-02-22T05:04:26;47.22;;;28.00;;
61572;SDS011;47465;43.094;12.434;2023-02-22T05:06:52;44.08;;;27.25;;
61572;SDS011;47465;43.094;12.434;2023-02-22T05:09:18;44.25;;;26.55;;
61572;SDS011;47465;43.094;12.434;2023-02-22T05:11:44;43.55;;;28.00;;
61572;SDS011;47465;43.094;12.434;2023-02-22T05:14:11;47.25;;;28.60;;
61572;SDS011;47465;43.094;12.434;2023-02-22T05:16:37;50.28;;;27.50;;
61572;SDS011;47465;43.094;12.434;2023-02-22T05:19:03;47.28;;;29.35;;
61572;SDS011;47465;43.094;12.434;2023-02-22T05:21:29;44.95;;;26.67;;
61572;SDS011;47465;43.094;12.434;2023-02-22T05:23:55;44.67;;;28.27;;
61572;SDS011;47465;43.094;12.434;2023-02-22T05:26:21;44.08;;;28.25;;
61572;SDS011;47465;43.094;12.434;2023-02-22T05:28:47;46.30;;;28.20;;
61572;SDS011;47465;43.094;12.434;2023-02-22T05:31:15;44.33;;;27.67;;
61572;SDS011;47465;43.094;12.434;2023-02-22T05:33:41;43.17;;;27.35;;
61572;SDS011;47465;43.094;12.434;2023-02-22T05:36:07;47.40;;;27.65;;
61572;SDS011;47465;43.094;12.434;2023-02-22T05:38:35;46.20;;;26.45;;
61572;SDS011;47465;43.094;12.434;2023-02-22T05:41:07;45.95;;;28.40;;
61572;SDS011;47465;43.094;12.434;2023-02-22T05:43:35;45.85;;;27.40;;
61572;SDS011;47465;43.094;12.434;2023-02-22T05:46:00;47.92;;;28.98;;
61572;SDS011;47465;43.094;12.434;2023-02-22T05:48:28;41.72;;;27.95;;
61572;SDS011;47465;43.094;12.434;2023-02-22T05:50:55;45.90;;;28.13;;
61572;SDS011;47465;43.094;12.434;2023-02-22T05:53:21;43.50;;;29.10;;
61572;SDS011;47465;43.094;12.434;2023-02-22T05:55:47;48.65;;;28.20;;
61572;SDS011;47465;43.094;12.434;2023-02-22T05:58:13;47.20;;;29.30;;
61572;SDS011;47465;43.094;12.434;2023-02-22T06:00:39;51.03;;;30.08;;
61572;SDS011;47465;43.094;12.434;2023-02-22T06:03:06;52.03;;;29.40;;
61572;SDS011;47465;43.094;12.434;2023-02-22T06:05:35;50.83;;;29.83;;
61572;SDS011;47465;43.094;12.434;2023-02-22T06:08:01;49.08;;;30.13;;
61572;SDS011;47465;43.094;12.434;2023-02-22T06:10:28;48.53;;;29.85;;
61572;SDS011;47465;43.094;12.434;2023-02-22T06:12:55;52.25;;;31.30;;
61572;SDS011;47465;43.094;12.434;2023-02-22T06:15:21;50.30;;;30.50;;
61572;SDS011;47465;43.094;12.434;2023-02-22T06:17:49;46.92;;;27.92;;
61572;SDS011;47465;43.094;12.434;2023-02-22T06:20:16;50.15;;;29.80;;
61572;SDS011;47465;43.094;12.434;2023-02-22T06:22:47;49.97;;;30.23;;
61572;SDS011;47465;43.094;12.434;2023-02-22T06:25:14;51.72;;;28.58;;
61572;SDS011;47465;43.094;12.434;2023-02-22T06:27:40;44.88;;;29.58;;
61572;SDS011;47465;43.094;12.434;2023-02-22T06:30:07;45.95;;;28.63;;
61572;SDS011;47465;43.094;12.434;2023-02-22T06:32:34;49.88;;;29.92;;
61572;SDS011;47465;43.094;12.434;2023-02-22T06:35:00;47.97;;;29.15;;
61572;SDS011;47465;43.094;12.434;2023-02-22T06:37:26;48.33;;;28.83;;
61572;SDS011;47465;43.094;12.434;2023-02-22T06:39:53;53.20;;;29.63;;
61572;SDS011;47465;43.094;12.434;2023-02-22T06:42:19;56.63;;;32.63;;
61572;SDS011;47465;43.094;12.434;2023-02-22T06:44:45;63.25;;;36.78;;
61572;SDS011;47465;43.094;12.434;2023-02-22T06:47:11;61.22;;;36.35;;
61572;SDS011;47465;43.094;12.434;2023-02-22T06:49:37;60.22;;;34.88;;
61572;SDS011;47465;43.094;12.434;2023-02-22T06:52:03;56.88;;;35.25;;
61572;SDS011;47465;43.094;12.434;2023-02-22T06:54:29;57.47;;;36.17;;
61572;SDS011;47465;43.094;12.434;2023-02-22T06:56:57;60.30;;;37.20;;
61572;SDS011;47465;43.094;12.434;2023-02-22T06:59:22;61.55;;;37.75;;
61572;SDS011;47465;43.094;12.434;2023-02-22T07:01:48;64.15;;;38.88;;
61572;SDS011;47465;43.094;12.434;2023-02-22T07:04:14;57.75;;;34.70;;
61572;SDS011;47465;43.094;12.434;2023-02-22T07:06:43;55.85;;;34.90;;
61572;SDS011;47465;43.094;12.434;2023-02-22T07:09:12;53.53;;;33.40;;
61572;SDS011;47465;43.094;12.434;2023-02-22T07:11:39;56.97;;;34.80;;
61572;SDS011;47465;43.094;12.434;2023-02-22T07:14:06;54.90;;;34.58;;
61572;SDS011;47465;43.094;12.434;2023-02-22T07:16:33;54.28;;;33.40;;
61572;SDS011;47465;43.094;12.434;2023-02-22T07:19:21;51.60;;;32.70;;
61572;SDS011;47465;43.094;12.434;2023-02-22T07:21:49;52.78;;;32.65;;
61572;SDS011;47465;43.094;12.434;2023-02-22T07:24:22;54.58;;;33.80;;
61572;SDS011;47465;43.094;12.434;2023-02-22T07:26:48;54.85;;;36.35;;
61572;SDS011;47465;43.094;12.434;2023-02-22T07:29:16;58.53;;;34.55;;
61572;SDS011;47465;43.094;12.434;2023-02-22T07:31:42;60.35;;;35.08;;
61572;SDS011;47465;43.094;12.434;2023-02-22T07:34:08;55.72;;;34.40;;
61572;SDS011;47465;43.094;12.434;2023-02-22T07:36:34;57.50;;;34.00;;
61572;SDS011;47465;43.094;12.434;2023-02-22T07:38:59;52.60;;;32.90;;
61572;SDS011;47465;43.094;12.434;2023-02-22T07:41:25;53.22;;;33.55;;
61572;SDS011;47465;43.094;12.434;2023-02-22T07:43:51;54.10;;;33.63;;
61572;SDS011;47465;43.094;12.434;2023-02-22T07:46:18;55.15;;;33.83;;
61572;SDS011;47465;43.094;12.434;2023-02-22T07:48:45;47.90;;;31.55;;
61572;SDS011;47465;43.094;12.434;2023-02-22T07:51:13;52.70;;;32.25;;
61572;SDS011;47465;43.094;12.434;2023-02-22T07:53:39;50.72;;;30.83;;
61572;SDS011;47465;43.094;12.434;2023-02-22T07:56:05;57.03;;;37.08;;
61572;SDS011;47465;43.094;12.434;2023-02-22T07:58:33;60.72;;;35.83;;
61572;SDS011;47465;43.094;12.434;2023-02-22T08:00:59;56.03;;;37.03;;
61572;SDS011;47465;43.094;12.434;2023-02-22T08:03:29;59.42;;;35.13;;
61572;SDS011;47465;43.094;12.434;2023-02-22T08:05:58;50.05;;;33.45;;
61572;SDS011;47465;43.094;12.434;2023-02-22T08:08:24;54.88;;;34.40;;
61572;SDS011;47465;43.094;12.434;2023-02-22T08:10:51;53.05;;;35.08;;
61572;SDS011;47465;43.094;12.434;2023-02-22T08:13:17;55.67;;;35.33;;
61572;SDS011;47465;43.094;12.434;2023-02-22T08:15:44;56.75;;;34.72;;
61572;SDS011;47465;43.094;12.434;2023-02-22T08:18:11;56.33;;;35.00;;
61572;SDS011;47465;43.094;12.434;2023-02-22T08:20:41;57.50;;;33.03;;
61572;SDS011;47465;43.094;12.434;2023-02-22T08:23:08;53.38;;;33.17;;
61572;SDS011;47465;43.094;12.434;2023-02-22T08:25:34;53.70;;;31.85;;
61572;SDS011;47465;43.094;12.434;2023-02-22T08:28:01;52.10;;;33.85;;
61572;SDS011;47465;43.094;12.434;2023-02-22T08:30:32;51.47;;;33.83;;
61572;SDS011;47465;43.094;12.434;2023-02-22T08:32:59;55.47;;;33.03;;
61572;SDS011;47465;43.094;12.434;2023-02-22T08:35:27;51.45;;;31.75;;
61572;SDS011;47465;43.094;12.434;2023-02-22T08:37:56;50.30;;;30.17;;
61572;SDS011;47465;43.094;12.434;2023-02-22T08:40:24;53.22;;;33.53;;
61572;SDS011;47465;43.094;12.434;2023-02-22T08:42:52;52.38;;;32.40;;
61572;SDS011;47465;43.094;12.434;2023-02-22T08:45:18;50.80;;;31.08;;
61572;SDS011;47465;43.094;12.434;2023-02-22T08:47:44;57.70;;;31.95;;
61572;SDS011;47465;43.094;12.434;2023-02-22T08:50:14;52.85;;;31.38;;
61572;SDS011;47465;43.094;12.434;2023-02-22T08:52:42;51.55;;;31.33;;
61572;SDS011;47465;43.094;12.434;2023-02-22T08:55:09;50.90;;;31.40;;
61572;SDS011;47465;43.094;12.434;2023-02-22T08:57:35;49.78;;;32.60;;
61572;SDS011;47465;43.094;12.434;2023-02-22T09:00:01;52.03;;;31.30;;
61572;SDS011;47465;43.094;12.434;2023-02-22T09:02:28;46.58;;;30.10;;
61572;SDS011;47465;43.094;12.434;2023-02-22T09:04:54;47.90;;;29.90;;
61572;SDS011;47465;43.094;12.434;2023-02-22T09:07:20;47.25;;;28.65;;
61572;SDS011;47465;43.094;12.434;2023-02-22T09:09:46;46.40;;;27.88;;
61572;SDS011;47465;43.094;12.434;2023-02-22T09:12:13;49.30;;;27.95;;
61572;SDS011;47465;43.094;12.434;2023-02-22T09:14:39;45.83;;;27.92;;
61572;SDS011;47465;43.094;12.434;2023-02-22T09:17:09;42.55;;;26.23;;
61572;SDS011;47465;43.094;12.434;2023-02-22T09:19:37;41.67;;;26.40;;
61572;SDS011;47465;43.094;12.434;2023-02-22T09:22:03;40.55;;;26.27;;
61572;SDS011;47465;43.094;12.434;2023-02-22T09:24:29;40.08;;;25.30;;
61572;SDS011;47465;43.094;12.434;2023-02-22T09:26:55;42.05;;;26.15;;
61572;SDS011;47465;43.094;12.434;2023-02-22T09:29:23;40.38;;;26.38;;
61572;SDS011;47465;43.094;12.434;2023-02-22T09:31:51;46.85;;;26.35;;
61572;SDS011;47465;43.094;12.434;2023-02-22T09:34:19;43.00;;;28.27;;
61572;SDS011;47465;43.094;12.434;2023-02-22T09:36:46;48.15;;;27.13;;
61572;SDS011;47465;43.094;12.434;2023-02-22T09:39:14;48.55;;;26.85;;
61572;SDS011;47465;43.094;12.434;2023-02-22T09:41:43;45.58;;;27.73;;
61572;SDS011;47465;43.094;12.434;2023-02-22T09:44:17;49.03;;;25.65;;
61572;SDS011;47465;43.094;12.434;2023-02-22T09:46:48;42.17;;;25.73;;
61572;SDS011;47465;43.094;12.434;2023-02-22T09:49:16;46.80;;;26.17;;
61572;SDS011;47465;43.094;12.434;2023-02-22T09:51:47;57.83;;;29.52;;
61572;SDS011;47465;43.094;12.434;2023-02-22T09:54:18;47.45;;;26.60;;
61572;SDS011;47465;43.094;12.434;2023-02-22T09:56:47;44.55;;;27.33;;
61572;SDS011;47465;43.094;12.434;2023-02-22T09:59:20;41.78;;;24.75;;
61572;SDS011;47465;43.094;12.434;2023-02-22T10:01:52;43.13;;;25.48;;
61572;SDS011;47465;43.094;12.434;2023-02-22T10:04:23;41.00;;;23.90;;
61572;SDS011;47465;43.094;12.434;2023-02-22T10:06:58;39.92;;;23.17;;
61572;SDS011;47465;43.094;12.434;2023-02-22T10:09:30;35.72;;;21.58;;
61572;SDS011;47465;43.094;12.434;2023-02-22T10:11:59;35.90;;;21.13;;
61572;SDS011;47465;43.094;12.434;2023-02-22T10:14:40;31.13;;;19.75;;
61572;SDS011;47465;43.094;12.434;2023-02-22T10:17:17;30.33;;;17.60;;
61572;SDS011;47465;43.094;12.434;2023-02-22T10:19:57;26.17;;;16.33;;
61572;SDS011;47465;43.094;12.434;2023-02-22T10:22:37;28.38;;;17.30;;
61572;SDS011;47465;43.094;12.434;2023-02-22T10:25:10;18.52;;;11.13;;
61572;SDS011;47465;43.094;12.434;2023-02-22T10:27:44;22.52;;;13.50;;
61572;SDS011;47465;43.094;12.434;2023-02-22T10:30:14;24.88;;;16.27;;
61572;SDS011;47465;43.094;12.434;2023-02-22T10:32:47;28.58;;;15.25;;
61572;SDS011;47465;43.094;12.434;2023-02-22T10:35:19;24.30;;;12.73;;
61572;SDS011;47465;43.094;12.434;2023-02-22T10:37:48;22.67;;;14.25;;
61572;SDS011;47465;43.094;12.434;2023-02-22T10:40:18;29.70;;;18.38;;
61572;SDS011;47465;43.094;12.434;2023-02-22T10:42:47;28.75;;;19.17;;
61572;SDS011;47465;43.094;12.434;2023-02-22T10:45:18;29.67;;;19.40;;
61572;SDS011;47465;43.094;12.434;2023-02-22T10:47:49;29.60;;;18.40;;
61572;SDS011;47465;43.094;12.434;2023-02-22T10:50:18;31.25;;;19.50;;
61572;SDS011;47465;43.094;12.434;2023-02-22T10:52:45;24.75;;;17.42;;
61572;SDS011;47465;43.094;12.434;2023-02-22T10:55:11;25.67;;;15.73;;
61572;SDS011;47465;43.094;12.434;2023-02-22T10:57:38;25.98;;;16.77;;
61572;SDS011;47465;43.094;12.434;2023-02-22T11:00:14;25.65;;;17.05;;
61572;SDS011;47465;43.094;12.434;2023-02-22T11:02:50;26.65;;;17.52;;
61572;SDS011;47465;43.094;12.434;2023-02-22T11:05:26;34.10;;;19.38;;
61572;SDS011;47465;43.094;12.434;2023-02-22T11:08:14;31.85;;;18.85;;
61572;SDS011;47465;43.094;12.434;2023-02-22T11:10:49;32.53;;;20.48;;
61572;SDS011;47465;43.094;12.434;2023-02-22T11:13:17;36.53;;;20.88;;
61572;SDS011;47465;43.094;12.434;2023-02-22T11:15:50;32.60;;;20.50;;
61572;SDS011;47465;43.094;12.434;2023-02-22T11:18:20;34.17;;;20.33;;
61572;SDS011;47465;43.094;12.434;2023-02-22T11:20:57;31.55;;;19.92;;
61572;SDS011;47465;43.094;12.434;2023-02-22T11:23:24;30.63;;;19.13;;
61572;SDS011;47465;43.094;12.434;2023-02-22T11:25:51;33.33;;;20.20;;
61572;SDS011;47465;43.094;12.434;2023-02-22T11:28:28;29.48;;;18.67;;
61572;SDS011;47465;43.094;12.434;2023-02-22T11:30:55;33.70;;;19.25;;
61572;SDS011;47465;43.094;12.434;2023-02-22T11:33:24;31.17;;;18.40;;
61572;SDS011;47465;43.094;12.434;2023-02-22T11:35:53;27.40;;;16.65;;
61572;SDS011;47465;43.094;12.434;2023-02-22T11:38:21;23.58;;;16.20;;
61572;SDS011;47465;43.094;12.434;2023-02-22T11:41:03;27.83;;;17.33;;
61572;SDS011;47465;43.094;12.434;2023-02-22T11:43:32;26.80;;;15.88;;
61572;SDS011;47465;43.094;12.434;2023-02-22T11:45:59;23.75;;;15.98;;
61572;SDS011;47465;43.094;12.434;2023-02-22T11:48:29;24.40;;;15.13;;
61572;SDS011;47465;43.094;12.434;2023-02-22T11:51:05;24.95;;;15.57;;
61572;SDS011;47465;43.094;12.434;2023-02-22T11:53:43;25.33;;;15.63;;
61572;SDS011;47465;43.094;12.434;2023-02-22T11:56:30;26.25;;;16.63;;
61572;SDS011;47465;43.094;12.434;2023-02-22T11:59:02;25.85;;;15.23;;
61572;SDS011;47465;43.094;12.434;2023-02-22T12:01:38;22.30;;;14.93;;
61572;SDS011;47465;43.094;12.434;2023-02-22T12:04:35;26.67;;;13.73;;
61572;SDS011;47465;43.094;12.434;2023-02-22T12:07:21;23.27;;;14.65;;
61572;SDS011;47465;43.094;12.434;2023-02-22T12:09:58;21.73;;;13.48;;
61572;SDS011;47465;43.094;12.434;2023-02-22T12:12:31;21.30;;;14.13;;
61572;SDS011;47465;43.094;12.434;2023-02-22T12:15:08;21.90;;;13.63;;
61572;SDS011;47465;43.094;12.434;2023-02-22T12:17:44;23.00;;;13.85;;
61572;SDS011;47465;43.094;12.434;2023-02-22T12:20:18;23.52;;;15.25;;
61572;SDS011;47465;43.094;12.434;2023-02-22T12:22:53;23.98;;;13.98;;
61572;SDS011;47465;43.094;12.434;2023-02-22T12:25:28;24.27;;;13.70;;
61572;SDS011;47465;43.094;12.434;2023-02-22T12:27:59;19.73;;;12.52;;
61572;SDS011;47465;43.094;12.434;2023-02-22T12:30:36;19.95;;;13.65;;
61572;SDS011;47465;43.094;12.434;2023-02-22T12:33:08;22.23;;;12.75;;
61572;SDS011;47465;43.094;12.434;2023-02-22T12:35:41;22.00;;;14.05;;
61572;SDS011;47465;43.094;12.434;2023-02-22T12:38:13;20.75;;;13.70;;
61572;SDS011;47465;43.094;12.434;2023-02-22T12:40:49;21.83;;;13.77;;
61572;SDS011;47465;43.094;12.434;2023-02-22T12:43:23;23.02;;;14.43;;
61572;SDS011;47465;43.094;12.434;2023-02-22T12:45:56;20.80;;;13.18;;
61572;SDS011;47465;43.094;12.434;2023-02-22T12:48:37;21.58;;;12.95;;
61572;SDS011;47465;43.094;12.434;2023-02-22T12:53:59;16.95;;;11.27;;
61572;SDS011;47465;43.094;12.434;2023-02-22T12:56:36;18.63;;;12.75;;
61572;SDS011;47465;43.094;12.434;2023-02-22T12:59:09;24.00;;;13.73;;
61572;SDS011;47465;43.094;12.434;2023-02-22T13:01:41;22.20;;;14.00;;
61572;SDS011;47465;43.094;12.434;2023-02-22T13:04:10;23.00;;;13.90;;
61572;SDS011;47465;43.094;12.434;2023-02-22T13:06:41;20.08;;;12.82;;
61572;SDS011;47465;43.094;12.434;2023-02-22T13:09:27;23.63;;;13.77;;
61572;SDS011;47465;43.094;12.434;2023-02-22T13:12:06;23.23;;;13.77;;
61572;SDS011;47465;43.094;12.434;2023-02-22T13:14:41;26.15;;;15.20;;
61572;SDS011;47465;43.094;12.434;2023-02-22T13:17:15;23.85;;;14.00;;
61572;SDS011;47465;43.094;12.434;2023-02-22T13:19:51;21.02;;;12.90;;
61572;SDS011;47465;43.094;12.434;2023-02-22T13:22:25;22.73;;;12.02;;
61572;SDS011;47465;43.094;12.434;2023-02-22T13:24:58;20.45;;;12.82;;
61572;SDS011;47465;43.094;12.434;2023-02-22T13:27:32;22.75;;;13.48;;
61572;SDS011;47465;43.094;12.434;2023-02-22T13:30:05;20.98;;;12.60;;
61572;SDS011;47465;43.094;12.434;2023-02-22T13:32:48;20.10;;;12.23;;
61572;SDS011;47465;43.094;12.434;2023-02-22T13:35:23;18.95;;;12.10;;
61572;SDS011;47465;43.094;12.434;2023-02-22T13:41:18;18.15;;;11.73;;
61572;SDS011;47465;43.094;12.434;2023-02-22T13:44:04;20.05;;;11.95;;
61572;SDS011;47465;43.094;12.434;2023-02-22T13:46:58;22.25;;;12.27;;
61572;SDS011;47465;43.094;12.434;2023-02-22T13:49:42;19.35;;;12.10;;
61572;SDS011;47465;43.094;12.434;2023-02-22T13:52:16;21.38;;;12.32;;
61572;SDS011;47465;43.094;12.434;2023-02-22T13:54:48;19.48;;;12.23;;
61572;SDS011;47465;43.094;12.434;2023-02-22T13:57:20;20.23;;;12.85;;
61572;SDS011;47465;43.094;12.434;2023-02-22T13:59:48;19.50;;;12.63;;
61572;SDS011;47465;43.094;12.434;2023-02-22T14:02:55;21.35;;;12.23;;
61572;SDS011;47465;43.094;12.434;2023-02-22T14:14:19;20.17;;;12.68;;
61572;SDS011;47465;43.094;12.434;2023-02-22T14:19:59;18.17;;;12.02;;
61572;SDS011;47465;43.094;12.434;2023-02-22T14:22:44;17.85;;;11.43;;
61572;SDS011;47465;43.094;12.434;2023-02-22T14:27:55;19.52;;;12.15;;
61572;SDS011;47465;43.094;12.434;2023-02-22T14:30:24;17.70;;;12.18;;
61572;SDS011;47465;43.094;12.434;2023-02-22T14:32:51;17.55;;;11.73;;
61572;SDS011;47465;43.094;12.434;2023-02-22T14:35:17;18.42;;;11.27;;
61572;SDS011;47465;43.094;12.434;2023-02-22T14:37:47;17.45;;;11.77;;
61572;SDS011;47465;43.094;12.434;2023-02-22T14:40:20;18.92;;;13.32;;
61572;SDS011;47465;43.094;12.434;2023-02-22T14:42:50;20.13;;;11.75;;
61572;SDS011;47465;43.094;12.434;2023-02-22T14:45:28;17.80;;;11.65;;
61572;SDS011;47465;43.094;12.434;2023-02-22T14:47:59;17.73;;;10.23;;
61572;SDS011;47465;43.094;12.434;2023-02-22T14:50:38;18.63;;;11.15;;
61572;SDS011;47465;43.094;12.434;2023-02-22T14:53:12;15.75;;;10.32;;
61572;SDS011;47465;43.094;12.434;2023-02-22T14:55:48;16.83;;;10.77;;
61572;SDS011;47465;43.094;12.434;2023-02-22T14:58:19;21.25;;;10.13;;